Date,TemperatureHighF,TemperatureAvgF,TemperatureLowF,DewpointHighF,DewpointAvgF,DewpointLowF,HumidityHigh,HumidityAvg,HumidityLow,PressureMaxIn,PressureMinIn,WindSpeedMaxMPH,WindSpeedAvgMPH,GustSpeedMaxMPH,PrecipitationSumIn
2013-11-1,71.0,62.3,47.6,61.3,52.3,40.2,95,73,36,29.68,29.33,11,3,20,0.14
2013-11-2,58.4,46.9,37.0,47.3,41.0,34.5,95,81,62,29.84,29.59,13,1,18,0.00
2013-11-3,42.4,36.8,24.4,37.3,24.8,14.2,86,62,41,30.49,29.84,8,2,15,0.00
2013-11-4,41.3,31.4,21.9,22.9,15.2,10.5,77,53,30,30.69,30.49,9,2,14,0.00
2013-11-5,50.9,39.2,24.6,36.5,28.2,16.4,79,65,52,30.67,30.44,7,1,11,0.00
2013-11-6,61.7,50.4,39.0,46.0,41.7,35.3,89,73,54,30.45,29.91,11,3,17,0.00
2013-11-7,54.5,48.3,40.1,49.7,41.9,33.9,91,79,63,29.91,29.75,10,2,15,0.14
2013-11-8,45.1,38.8,32.7,35.4,30.0,23.9,85,71,46,30.16,29.87,11,3,19,0.00
2013-11-9,43.1,36.0,28.0,31.4,27.1,19.2,81,70,57,30.23,29.90,4,1,8,0.00
2013-11-10,50.0,42.3,35.9,40.9,34.4,28.1,88,74,55,29.98,29.74,8,2,19,0.04
2013-11-11,47.6,43.4,35.7,35.5,29.7,24.4,77,58,48,30.14,29.90,9,2,19,0.00
2013-11-12,41.1,31.4,27.1,34.5,19.6,11.6,80,62,48,30.28,29.93,10,3,18,0.01
2013-11-13,35.7,28.6,22.8,16.9,11.4,2.6,64,49,25,30.37,30.15,8,2,17,0.00
2013-11-14,51.2,34.6,21.9,24.8,18.9,13.8,74,55,28,30.15,30.04,7,1,14,0.00
2013-11-15,55.4,38.1,24.2,25.8,19.4,14.9,71,51,21,30.19,30.07,6,1,8,0.00
2013-11-16,59.5,44.7,35.4,37.0,31.6,24.6,82,62,39,30.29,30.18,5,1,8,0.00
2013-11-17,60.4,50.5,36.6,56.6,46.8,30.1,95,87,77,30.24,29.64,14,4,23,0.02
2013-11-18,61.3,54.8,40.2,57.0,41.2,29.3,89,62,34,29.75,29.44,17,4,28,0.22
2013-11-19,41.0,36.1,28.7,29.8,20.7,14.8,74,54,45,30.40,29.75,12,4,28,0.01
2013-11-20,38.1,28.9,21.3,16.5,12.2,7.4,68,50,29,30.65,30.39,8,2,12,0.00
2013-11-21,43.3,31.6,16.3,30.5,19.3,8.9,77,62,37,30.65,30.36,7,1,9,0.00
2013-11-22,46.9,40.1,35.9,42.8,35.8,27.4,91,84,69,30.35,29.86,9,1,19,0.05
2013-11-23,43.8,34.0,22.6,36.4,22.9,11.3,80,64,36,30.02,29.83,12,4,33,0.02
2013-11-24,25.8,19.9,14.3,14.3,-0.6,-7.0,76,41,23,30.32,29.91,13,5,27,0.04
2013-11-25,31.8,24.0,13.8,14.3,6.2,-5.0,52,46,36,30.44,30.20,8,2,15,0.00
2013-11-26,33.8,31.1,26.9,29.6,24.3,12.4,87,77,45,30.29,29.92,4,1,10,0.00
2013-11-27,38.4,35.1,31.1,36.9,31.4,24.7,94,86,77,29.92,29.38,10,3,19,0.44
2013-11-28,31.1,24.3,16.7,24.7,9.9,4.2,77,55,36,30.46,29.64,11,3,27,0.00
2013-11-29,32.0,23.3,17.0,15.5,10.3,4.0,77,58,40,30.77,30.46,8,2,14,0.00
2013-11-30,30.3,22.6,9.3,16.5,6.3,0.0,70,50,32,30.80,30.35,11,3,15,0.00